sensor_id;sensor_type;location;lat;lon;timestamp;temperature;humidity
66328;DHT22;53133;52.862;6.602;2022-10-31T00:01:33;13.40;99.90
66328;DHT22;53133;52.862;6.602;2022-10-31T00:03:58;13.40;99.90
66328;DHT22;53133;52.862;6.602;2022-10-31T00:06:24;13.40;99.90
66328;DHT22;53133;52.862;6.602;2022-10-31T00:09:01;13.30;99.90
66328;DHT22;53133;52.862;6.602;2022-10-31T00:11:28;13.30;99.90
66328;DHT22;53133;52.862;6.602;2022-10-31T00:13:54;13.30;99.90
66328;DHT22;53133;52.862;6.602;2022-10-31T00:16:23;13.30;99.90
66328;DHT22;53133;52.862;6.602;2022-10-31T00:18:58;13.30;99.90
66328;DHT22;53133;52.862;6.602;2022-10-31T00:21:24;13.30;99.90
66328;DHT22;53133;52.862;6.602;2022-10-31T00:23:50;13.20;99.90
66328;DHT22;53133;52.862;6.602;2022-10-31T00:26:16;13.20;99.90
66328;DHT22;53133;52.862;6.602;2022-10-31T00:28:41;13.20;99.90
66328;DHT22;53133;52.862;6.602;2022-10-31T00:31:09;13.20;99.90
66328;DHT22;53133;52.862;6.602;2022-10-31T00:33:36;13.20;99.90
66328;DHT22;53133;52.862;6.602;2022-10-31T00:36:04;13.20;99.90
66328;DHT22;53133;52.862;6.602;2022-10-31T00:38:29;13.20;99.90
66328;DHT22;53133;52.862;6.602;2022-10-31T00:40:55;13.20;99.90
66328;DHT22;53133;52.862;6.602;2022-10-31T00:43:21;13.10;99.90
66328;DHT22;53133;52.862;6.602;2022-10-31T00:45:46;13.10;99.90
66328;DHT22;53133;52.862;6.602;2022-10-31T00:48:12;13.10;99.90
66328;DHT22;53133;52.862;6.602;2022-10-31T00:50:38;13.10;99.90
66328;DHT22;53133;52.862;6.602;2022-10-31T00:53:04;13.10;99.90
66328;DHT22;53133;52.862;6.602;2022-10-31T00:55:30;13.10;99.90
66328;DHT22;53133;52.862;6.602;2022-10-31T00:57:55;13.00;99.90
66328;DHT22;53133;52.862;6.602;2022-10-31T01:00:21;13.00;99.90
66328;DHT22;53133;52.862;6.602;2022-10-31T01:02:47;13.00;99.90
66328;DHT22;53133;52.862;6.602;2022-10-31T01:05:13;12.90;99.90
66328;DHT22;53133;52.862;6.602;2022-10-31T01:07:39;12.90;99.90
66328;DHT22;53133;52.862;6.602;2022-10-31T01:10:06;12.90;99.90
66328;DHT22;53133;52.862;6.602;2022-10-31T01:12:43;12.80;99.90
66328;DHT22;53133;52.862;6.602;2022-10-31T01:15:11;12.80;99.90
66328;DHT22;53133;52.862;6.602;2022-10-31T01:17:36;12.80;99.90
66328;DHT22;53133;52.862;6.602;2022-10-31T01:20:04;12.80;99.90
66328;DHT22;53133;52.862;6.602;2022-10-31T01:22:30;12.80;99.90
66328;DHT22;53133;52.862;6.602;2022-10-31T01:24:56;12.80;99.90
66328;DHT22;53133;52.862;6.602;2022-10-31T01:27:21;12.80;99.90
66328;DHT22;53133;52.862;6.602;2022-10-31T01:29:47;12.80;99.90
66328;DHT22;53133;52.862;6.602;2022-10-31T01:32:12;12.80;99.90
66328;DHT22;53133;52.862;6.602;2022-10-31T01:34:38;12.90;99.90
66328;DHT22;53133;52.862;6.602;2022-10-31T01:37:03;12.80;99.90
66328;DHT22;53133;52.862;6.602;2022-10-31T01:39:29;12.80;99.90
66328;DHT22;53133;52.862;6.602;2022-10-31T01:41:55;12.80;99.90
66328;DHT22;53133;52.862;6.602;2022-10-31T01:47:17;12.90;99.90
66328;DHT22;53133;52.862;6.602;2022-10-31T01:49:51;12.90;99.90
66328;DHT22;53133;52.862;6.602;2022-10-31T01:52:32;12.90;99.90
66328;DHT22;53133;52.862;6.602;2022-10-31T01:55:08;12.80;99.90
66328;DHT22;53133;52.862;6.602;2022-10-31T01:57:37;12.80;99.90
66328;DHT22;53133;52.862;6.602;2022-10-31T02:00:06;12.80;99.90
66328;DHT22;53133;52.862;6.602;2022-10-31T02:02:33;12.80;99.90
66328;DHT22;53133;52.862;6.602;2022-10-31T02:05:00;12.80;99.90
66328;DHT22;53133;52.862;6.602;2022-10-31T02:10:42;12.70;99.90
66328;DHT22;53133;52.862;6.602;2022-10-31T02:13:09;12.70;99.90
66328;DHT22;53133;52.862;6.602;2022-10-31T02:15:35;12.70;99.90
66328;DHT22;53133;52.862;6.602;2022-10-31T02:18:02;12.70;99.90
66328;DHT22;53133;52.862;6.602;2022-10-31T02:20:58;12.70;99.90
66328;DHT22;53133;52.862;6.602;2022-10-31T02:26:10;12.60;99.90
66328;DHT22;53133;52.862;6.602;2022-10-31T02:31:46;12.60;99.90
66328;DHT22;53133;52.862;6.602;2022-10-31T02:34:23;12.50;99.90
66328;DHT22;53133;52.862;6.602;2022-10-31T02:39:50;12.40;99.90
66328;DHT22;53133;52.862;6.602;2022-10-31T02:42:24;12.40;99.90
66328;DHT22;53133;52.862;6.602;2022-10-31T02:45:41;12.40;99.90
66328;DHT22;53133;52.862;6.602;2022-10-31T02:47:41;12.40;99.90
66328;DHT22;53133;52.862;6.602;2022-10-31T02:50:23;12.40;99.90
66328;DHT22;53133;52.862;6.602;2022-10-31T02:52:52;12.40;99.90
66328;DHT22;53133;52.862;6.602;2022-10-31T02:57:56;12.30;99.90
66328;DHT22;53133;52.862;6.602;2022-10-31T03:00:22;12.30;99.90
66328;DHT22;53133;52.862;6.602;2022-10-31T03:05:43;12.30;99.90
66328;DHT22;53133;52.862;6.602;2022-10-31T03:11:05;12.30;99.90
66328;DHT22;53133;52.862;6.602;2022-10-31T03:14:05;12.20;99.90
66328;DHT22;53133;52.862;6.602;2022-10-31T03:16:49;12.20;99.90
66328;DHT22;53133;52.862;6.602;2022-10-31T03:19:16;12.20;99.90
66328;DHT22;53133;52.862;6.602;2022-10-31T03:21:50;12.20;99.90
66328;DHT22;53133;52.862;6.602;2022-10-31T03:24:19;12.20;99.90
66328;DHT22;53133;52.862;6.602;2022-10-31T03:26:49;12.20;99.90
66328;DHT22;53133;52.862;6.602;2022-10-31T03:29:19;12.20;99.90
66328;DHT22;53133;52.862;6.602;2022-10-31T03:31:57;12.20;99.90
66328;DHT22;53133;52.862;6.602;2022-10-31T03:34:25;12.10;99.90
66328;DHT22;53133;52.862;6.602;2022-10-31T03:36:55;12.10;99.90
66328;DHT22;53133;52.862;6.602;2022-10-31T03:39:22;12.10;99.90
66328;DHT22;53133;52.862;6.602;2022-10-31T03:42:10;12.10;99.90
66328;DHT22;53133;52.862;6.602;2022-10-31T03:44:38;12.00;99.90
66328;DHT22;53133;52.862;6.602;2022-10-31T03:47:06;12.00;99.90
66328;DHT22;53133;52.862;6.602;2022-10-31T03:49:32;12.00;99.90
66328;DHT22;53133;52.862;6.602;2022-10-31T03:57:18;12.00;99.90
66328;DHT22;53133;52.862;6.602;2022-10-31T04:00:22;11.90;99.90
66328;DHT22;53133;52.862;6.602;2022-10-31T04:02:45;11.90;99.90
66328;DHT22;53133;52.862;6.602;2022-10-31T04:05:13;11.90;99.90
66328;DHT22;53133;52.862;6.602;2022-10-31T04:07:45;11.90;99.90
66328;DHT22;53133;52.862;6.602;2022-10-31T04:10:13;11.90;99.90
66328;DHT22;53133;52.862;6.602;2022-10-31T04:12:41;11.80;99.90
66328;DHT22;53133;52.862;6.602;2022-10-31T04:15:09;11.80;99.90
66328;DHT22;53133;52.862;6.602;2022-10-31T04:17:39;11.80;99.90
66328;DHT22;53133;52.862;6.602;2022-10-31T04:20:06;11.80;99.90
66328;DHT22;53133;52.862;6.602;2022-10-31T04:22:31;11.80;99.90
66328;DHT22;53133;52.862;6.602;2022-10-31T04:24:57;11.70;99.90
66328;DHT22;53133;52.862;6.602;2022-10-31T04:27:22;11.70;99.90
66328;DHT22;53133;52.862;6.602;2022-10-31T04:29:48;11.70;99.90
66328;DHT22;53133;52.862;6.602;2022-10-31T04:32:14;11.80;99.90
66328;DHT22;53133;52.862;6.602;2022-10-31T04:34:39;11.70;99.90
66328;DHT22;53133;52.862;6.602;2022-10-31T04:37:05;11.70;99.90
66328;DHT22;53133;52.862;6.602;2022-10-31T04:39:30;11.70;99.90
66328;DHT22;53133;52.862;6.602;2022-10-31T04:41:56;11.70;99.90
66328;DHT22;53133;52.862;6.602;2022-10-31T04:44:21;11.60;99.90
66328;DHT22;53133;52.862;6.602;2022-10-31T04:46:47;11.50;99.90
66328;DHT22;53133;52.862;6.602;2022-10-31T04:49:13;11.50;99.90
66328;DHT22;53133;52.862;6.602;2022-10-31T04:51:38;11.40;99.90
66328;DHT22;53133;52.862;6.602;2022-10-31T04:54:04;11.40;99.90
66328;DHT22;53133;52.862;6.602;2022-10-31T04:56:29;11.40;99.90
66328;DHT22;53133;52.862;6.602;2022-10-31T04:58:55;11.40;99.90
66328;DHT22;53133;52.862;6.602;2022-10-31T05:01:21;11.30;99.90
66328;DHT22;53133;52.862;6.602;2022-10-31T05:03:46;11.30;99.90
66328;DHT22;53133;52.862;6.602;2022-10-31T05:06:12;11.30;99.90
66328;DHT22;53133;52.862;6.602;2022-10-31T05:08:38;11.30;99.90
66328;DHT22;53133;52.862;6.602;2022-10-31T05:11:04;11.30;99.90
66328;DHT22;53133;52.862;6.602;2022-10-31T05:13:30;11.30;99.90
66328;DHT22;53133;52.862;6.602;2022-10-31T05:15:56;11.20;99.90
66328;DHT22;53133;52.862;6.602;2022-10-31T05:18:22;11.10;99.90
66328;DHT22;53133;52.862;6.602;2022-10-31T05:20:48;11.10;99.90
66328;DHT22;53133;52.862;6.602;2022-10-31T05:23:13;11.10;99.90
66328;DHT22;53133;52.862;6.602;2022-10-31T05:25:42;11.10;99.90
66328;DHT22;53133;52.862;6.602;2022-10-31T05:28:08;11.00;99.90
66328;DHT22;53133;52.862;6.602;2022-10-31T05:30:34;11.00;99.90
66328;DHT22;53133;52.862;6.602;2022-10-31T05:33:00;11.00;99.90
66328;DHT22;53133;52.862;6.602;2022-10-31T05:35:31;11.00;99.90
66328;DHT22;53133;52.862;6.602;2022-10-31T05:37:58;10.90;99.90
66328;DHT22;53133;52.862;6.602;2022-10-31T05:40:24;10.90;99.90
66328;DHT22;53133;52.862;6.602;2022-10-31T05:42:51;10.80;99.90
66328;DHT22;53133;52.862;6.602;2022-10-31T05:45:18;10.80;99.90
66328;DHT22;53133;52.862;6.602;2022-10-31T05:47:54;10.80;99.90
66328;DHT22;53133;52.862;6.602;2022-10-31T05:50:25;10.80;99.90
66328;DHT22;53133;52.862;6.602;2022-10-31T05:53:02;10.80;99.90
66328;DHT22;53133;52.862;6.602;2022-10-31T05:55:28;10.80;99.90
66328;DHT22;53133;52.862;6.602;2022-10-31T05:57:55;10.70;99.90
66328;DHT22;53133;52.862;6.602;2022-10-31T06:00:22;10.70;99.90
66328;DHT22;53133;52.862;6.602;2022-10-31T06:02:48;10.60;99.90
66328;DHT22;53133;52.862;6.602;2022-10-31T06:05:14;10.60;99.90
66328;DHT22;53133;52.862;6.602;2022-10-31T06:07:40;10.60;99.90
66328;DHT22;53133;52.862;6.602;2022-10-31T06:10:07;10.60;99.90
66328;DHT22;53133;52.862;6.602;2022-10-31T06:12:33;10.50;99.90
66328;DHT22;53133;52.862;6.602;2022-10-31T06:15:06;10.50;99.90
66328;DHT22;53133;52.862;6.602;2022-10-31T06:17:33;10.50;99.90
66328;DHT22;53133;52.862;6.602;2022-10-31T06:19:59;10.50;99.90
66328;DHT22;53133;52.862;6.602;2022-10-31T06:22:24;10.50;99.90
66328;DHT22;53133;52.862;6.602;2022-10-31T06:24:50;10.50;99.90
66328;DHT22;53133;52.862;6.602;2022-10-31T06:27:15;10.40;99.90
66328;DHT22;53133;52.862;6.602;2022-10-31T06:29:41;10.50;99.90
66328;DHT22;53133;52.862;6.602;2022-10-31T06:32:10;10.50;99.90
66328;DHT22;53133;52.862;6.602;2022-10-31T06:34:36;10.40;99.90
66328;DHT22;53133;52.862;6.602;2022-10-31T06:37:01;10.40;99.90
66328;DHT22;53133;52.862;6.602;2022-10-31T06:39:27;10.40;99.90
66328;DHT22;53133;52.862;6.602;2022-10-31T06:41:52;10.40;99.90
66328;DHT22;53133;52.862;6.602;2022-10-31T06:44:18;10.40;99.90
66328;DHT22;53133;52.862;6.602;2022-10-31T06:46:46;10.40;99.90
66328;DHT22;53133;52.862;6.602;2022-10-31T06:49:12;10.40;99.90
66328;DHT22;53133;52.862;6.602;2022-10-31T06:51:38;10.30;99.90
66328;DHT22;53133;52.862;6.602;2022-10-31T06:54:04;10.40;99.90
66328;DHT22;53133;52.862;6.602;2022-10-31T06:56:29;10.40;99.90
66328;DHT22;53133;52.862;6.602;2022-10-31T06:58:55;10.40;99.90
66328;DHT22;53133;52.862;6.602;2022-10-31T07:01:20;10.40;99.90
66328;DHT22;53133;52.862;6.602;2022-10-31T07:03:46;10.40;99.90
66328;DHT22;53133;52.862;6.602;2022-10-31T07:06:12;10.30;99.90
66328;DHT22;53133;52.862;6.602;2022-10-31T07:08:37;10.30;99.90
66328;DHT22;53133;52.862;6.602;2022-10-31T07:11:03;10.30;99.90
66328;DHT22;53133;52.862;6.602;2022-10-31T07:13:28;10.30;99.90
66328;DHT22;53133;52.862;6.602;2022-10-31T07:15:58;10.30;99.90
66328;DHT22;53133;52.862;6.602;2022-10-31T07:18:24;10.30;99.90
66328;DHT22;53133;52.862;6.602;2022-10-31T07:20:52;10.30;99.90
66328;DHT22;53133;52.862;6.602;2022-10-31T07:23:17;10.30;99.90
66328;DHT22;53133;52.862;6.602;2022-10-31T07:25:43;10.30;99.90
66328;DHT22;53133;52.862;6.602;2022-10-31T07:28:09;10.30;99.90
66328;DHT22;53133;52.862;6.602;2022-10-31T07:30:35;10.30;99.90
66328;DHT22;53133;52.862;6.602;2022-10-31T07:33:01;10.30;99.90
66328;DHT22;53133;52.862;6.602;2022-10-31T07:35:28;10.30;99.90
66328;DHT22;53133;52.862;6.602;2022-10-31T07:37:54;10.30;99.90
66328;DHT22;53133;52.862;6.602;2022-10-31T07:40:21;10.40;99.90
66328;DHT22;53133;52.862;6.602;2022-10-31T07:42:49;10.40;99.90
66328;DHT22;53133;52.862;6.602;2022-10-31T07:45:17;10.40;99.90
66328;DHT22;53133;52.862;6.602;2022-10-31T07:47:53;10.40;99.90
66328;DHT22;53133;52.862;6.602;2022-10-31T07:50:29;10.50;99.90
66328;DHT22;53133;52.862;6.602;2022-10-31T07:53:21;10.50;99.90
66328;DHT22;53133;52.862;6.602;2022-10-31T07:55:46;10.50;99.90
66328;DHT22;53133;52.862;6.602;2022-10-31T07:58:16;10.50;99.90
66328;DHT22;53133;52.862;6.602;2022-10-31T08:00:43;10.60;99.90
66328;DHT22;53133;52.862;6.602;2022-10-31T08:03:15;10.60;99.90
66328;DHT22;53133;52.862;6.602;2022-10-31T08:05:41;10.70;99.90
66328;DHT22;53133;52.862;6.602;2022-10-31T08:08:07;10.70;99.90
66328;DHT22;53133;52.862;6.602;2022-10-31T08:10:34;10.70;99.90
66328;DHT22;53133;52.862;6.602;2022-10-31T08:13:01;10.80;99.90
66328;DHT22;53133;52.862;6.602;2022-10-31T08:15:28;10.80;99.90
66328;DHT22;53133;52.862;6.602;2022-10-31T08:17:54;10.90;99.90
66328;DHT22;53133;52.862;6.602;2022-10-31T08:20:20;10.90;99.90
66328;DHT22;53133;52.862;6.602;2022-10-31T08:22:56;11.10;99.90
66328;DHT22;53133;52.862;6.602;2022-10-31T08:25:23;11.10;99.90
66328;DHT22;53133;52.862;6.602;2022-10-31T08:27:50;11.20;99.90
66328;DHT22;53133;52.862;6.602;2022-10-31T08:30:17;11.30;99.90
66328;DHT22;53133;52.862;6.602;2022-10-31T08:32:42;11.30;99.90
66328;DHT22;53133;52.862;6.602;2022-10-31T08:35:08;11.40;99.90
66328;DHT22;53133;52.862;6.602;2022-10-31T08:37:33;11.40;99.90
66328;DHT22;53133;52.862;6.602;2022-10-31T08:39:59;11.50;99.90
66328;DHT22;53133;52.862;6.602;2022-10-31T08:42:24;11.50;99.90
66328;DHT22;53133;52.862;6.602;2022-10-31T08:44:50;11.60;99.90
66328;DHT22;53133;52.862;6.602;2022-10-31T08:47:16;11.70;99.90
66328;DHT22;53133;52.862;6.602;2022-10-31T08:49:41;11.70;99.90
66328;DHT22;53133;52.862;6.602;2022-10-31T08:52:07;11.80;99.90
66328;DHT22;53133;52.862;6.602;2022-10-31T08:54:32;11.80;99.90
66328;DHT22;53133;52.862;6.602;2022-10-31T08:56:58;11.90;99.90
66328;DHT22;53133;52.862;6.602;2022-10-31T08:59:23;11.90;99.90
66328;DHT22;53133;52.862;6.602;2022-10-31T09:01:49;11.90;99.90
66328;DHT22;53133;52.862;6.602;2022-10-31T09:04:15;12.00;99.90
66328;DHT22;53133;52.862;6.602;2022-10-31T09:06:40;11.90;99.90
66328;DHT22;53133;52.862;6.602;2022-10-31T09:09:06;12.00;99.90
66328;DHT22;53133;52.862;6.602;2022-10-31T09:11:32;11.90;99.90
66328;DHT22;53133;52.862;6.602;2022-10-31T09:13:57;12.00;99.90
66328;DHT22;53133;52.862;6.602;2022-10-31T09:16:23;12.00;99.90
66328;DHT22;53133;52.862;6.602;2022-10-31T09:18:48;12.00;99.90
66328;DHT22;53133;52.862;6.602;2022-10-31T09:21:14;12.10;99.90
66328;DHT22;53133;52.862;6.602;2022-10-31T09:23:39;12.10;99.90
66328;DHT22;53133;52.862;6.602;2022-10-31T09:26:05;12.10;99.90
66328;DHT22;53133;52.862;6.602;2022-10-31T09:28:31;12.10;99.90
66328;DHT22;53133;52.862;6.602;2022-10-31T09:30:57;12.20;99.90
66328;DHT22;53133;52.862;6.602;2022-10-31T09:33:23;12.20;99.90
66328;DHT22;53133;52.862;6.602;2022-10-31T09:35:49;12.20;99.90
66328;DHT22;53133;52.862;6.602;2022-10-31T09:38:17;12.20;99.90
66328;DHT22;53133;52.862;6.602;2022-10-31T09:41:04;12.20;99.90
66328;DHT22;53133;52.862;6.602;2022-10-31T09:43:43;12.20;99.90
66328;DHT22;53133;52.862;6.602;2022-10-31T09:48:52;12.30;99.90
66328;DHT22;53133;52.862;6.602;2022-10-31T09:51:50;12.30;99.90
66328;DHT22;53133;52.862;6.602;2022-10-31T09:54:40;12.30;99.90
66328;DHT22;53133;52.862;6.602;2022-10-31T09:57:13;12.40;99.90
66328;DHT22;53133;52.862;6.602;2022-10-31T09:59:41;12.40;99.90
66328;DHT22;53133;52.862;6.602;2022-10-31T10:02:17;12.40;99.90
66328;DHT22;53133;52.862;6.602;2022-10-31T10:04:58;12.50;99.90
66328;DHT22;53133;52.862;6.602;2022-10-31T10:10:18;12.50;99.90
66328;DHT22;53133;52.862;6.602;2022-10-31T10:12:56;12.60;99.90
66328;DHT22;53133;52.862;6.602;2022-10-31T10:15:56;12.60;99.90
66328;DHT22;53133;52.862;6.602;2022-10-31T10:18:42;12.60;99.90
66328;DHT22;53133;52.862;6.602;2022-10-31T10:21:33;12.70;99.90
66328;DHT22;53133;52.862;6.602;2022-10-31T10:24:33;12.70;99.90
66328;DHT22;53133;52.862;6.602;2022-10-31T10:29:43;12.90;99.90
66328;DHT22;53133;52.862;6.602;2022-10-31T10:32:25;13.00;99.90
66328;DHT22;53133;52.862;6.602;2022-10-31T10:34:55;13.00;99.90
66328;DHT22;53133;52.862;6.602;2022-10-31T10:37:30;13.20;99.90
66328;DHT22;53133;52.862;6.602;2022-10-31T10:40:21;13.20;99.90
66328;DHT22;53133;52.862;6.602;2022-10-31T10:45:51;13.50;99.90
66328;DHT22;53133;52.862;6.602;2022-10-31T10:48:40;13.60;99.90
66328;DHT22;53133;52.862;6.602;2022-10-31T10:51:15;13.70;99.90
66328;DHT22;53133;52.862;6.602;2022-10-31T10:54:09;13.70;99.90
66328;DHT22;53133;52.862;6.602;2022-10-31T10:59:06;13.80;99.90
66328;DHT22;53133;52.862;6.602;2022-10-31T11:01:35;13.80;99.90
66328;DHT22;53133;52.862;6.602;2022-10-31T11:04:02;13.90;99.90
66328;DHT22;53133;52.862;6.602;2022-10-31T11:06:28;13.90;99.90
66328;DHT22;53133;52.862;6.602;2022-10-31T11:08:54;13.90;99.90
66328;DHT22;53133;52.862;6.602;2022-10-31T11:11:24;14.00;99.90
66328;DHT22;53133;52.862;6.602;2022-10-31T11:14:05;14.10;99.90
66328;DHT22;53133;52.862;6.602;2022-10-31T11:16:39;14.10;99.90
66328;DHT22;53133;52.862;6.602;2022-10-31T11:19:23;14.10;99.90
66328;DHT22;53133;52.862;6.602;2022-10-31T11:21:51;14.20;99.90
66328;DHT22;53133;52.862;6.602;2022-10-31T11:24:22;14.20;99.90
66328;DHT22;53133;52.862;6.602;2022-10-31T11:26:50;14.20;99.90
66328;DHT22;53133;52.862;6.602;2022-10-31T11:29:25;14.20;99.90
66328;DHT22;53133;52.862;6.602;2022-10-31T11:31:55;14.30;99.90
66328;DHT22;53133;52.862;6.602;2022-10-31T11:34:26;14.30;99.90
66328;DHT22;53133;52.862;6.602;2022-10-31T11:36:53;14.30;99.90
66328;DHT22;53133;52.862;6.602;2022-10-31T11:39:23;14.30;99.90
66328;DHT22;53133;52.862;6.602;2022-10-31T11:41:52;14.30;99.90
66328;DHT22;53133;52.862;6.602;2022-10-31T11:46:57;14.40;99.90
66328;DHT22;53133;52.862;6.602;2022-10-31T11:49:29;14.40;99.90
66328;DHT22;53133;52.862;6.602;2022-10-31T11:51:57;14.50;99.90
66328;DHT22;53133;52.862;6.602;2022-10-31T12:00:25;14.60;99.90
66328;DHT22;53133;52.862;6.602;2022-10-31T12:03:23;14.70;99.90
66328;DHT22;53133;52.862;6.602;2022-10-31T12:06:18;14.70;99.90
66328;DHT22;53133;52.862;6.602;2022-10-31T12:08:44;14.80;99.90
66328;DHT22;53133;52.862;6.602;2022-10-31T12:17:36;14.90;99.90
66328;DHT22;53133;52.862;6.602;2022-10-31T12:22:46;15.10;99.90
66328;DHT22;53133;52.862;6.602;2022-10-31T12:28:11;15.10;99.90
66328;DHT22;53133;52.862;6.602;2022-10-31T12:39:18;15.10;99.90
66328;DHT22;53133;52.862;6.602;2022-10-31T12:41:46;15.10;99.90
66328;DHT22;53133;52.862;6.602;2022-10-31T12:44:30;15.10;99.90
66328;DHT22;53133;52.862;6.602;2022-10-31T12:47:29;15.10;99.90
66328;DHT22;53133;52.862;6.602;2022-10-31T12:53:27;15.10;99.90
66328;DHT22;53133;52.862;6.602;2022-10-31T12:58:35;15.10;99.90
66328;DHT22;53133;52.862;6.602;2022-10-31T13:01:13;15.20;99.90
66328;DHT22;53133;52.862;6.602;2022-10-31T13:06:42;15.20;99.90
66328;DHT22;53133;52.862;6.602;2022-10-31T13:09:19;15.20;99.90
66328;DHT22;53133;52.862;6.602;2022-10-31T13:11:50;15.20;99.90
66328;DHT22;53133;52.862;6.602;2022-10-31T13:14:36;15.30;99.90
66328;DHT22;53133;52.862;6.602;2022-10-31T13:17:04;15.30;99.90
66328;DHT22;53133;52.862;6.602;2022-10-31T13:19:40;15.30;99.90
66328;DHT22;53133;52.862;6.602;2022-10-31T13:25:02;15.40;99.90
66328;DHT22;53133;52.862;6.602;2022-10-31T13:30:18;15.60;99.90
66328;DHT22;53133;52.862;6.602;2022-10-31T13:38:29;15.60;99.90
66328;DHT22;53133;52.862;6.602;2022-10-31T13:44:00;15.60;99.90
66328;DHT22;53133;52.862;6.602;2022-10-31T13:46:39;15.60;99.90
66328;DHT22;53133;52.862;6.602;2022-10-31T13:54:48;15.60;99.90
66328;DHT22;53133;52.862;6.602;2022-10-31T13:57:19;15.60;99.90
66328;DHT22;53133;52.862;6.602;2022-10-31T14:00:27;15.70;99.90
66328;DHT22;53133;52.862;6.602;2022-10-31T14:02:55;15.70;99.90
66328;DHT22;53133;52.862;6.602;2022-10-31T14:05:31;15.60;99.90
66328;DHT22;53133;52.862;6.602;2022-10-31T14:08:00;15.50;99.90
66328;DHT22;53133;52.862;6.602;2022-10-31T14:12:54;15.50;99.90
66328;DHT22;53133;52.862;6.602;2022-10-31T14:15:25;15.50;99.90
66328;DHT22;53133;52.862;6.602;2022-10-31T14:17:55;15.40;99.90
66328;DHT22;53133;52.862;6.602;2022-10-31T14:22:50;15.40;99.90
66328;DHT22;53133;52.862;6.602;2022-10-31T14:25:31;15.40;99.90
66328;DHT22;53133;52.862;6.602;2022-10-31T14:27:59;15.40;99.90
66328;DHT22;53133;52.862;6.602;2022-10-31T14:30:26;15.40;99.90
66328;DHT22;53133;52.862;6.602;2022-10-31T14:32:57;15.40;99.90
66328;DHT22;53133;52.862;6.602;2022-10-31T14:35:29;15.40;99.90
66328;DHT22;53133;52.862;6.602;2022-10-31T14:38:25;15.40;99.90
66328;DHT22;53133;52.862;6.602;2022-10-31T14:43:45;15.40;99.90
66328;DHT22;53133;52.862;6.602;2022-10-31T14:46:18;15.40;99.90
66328;DHT22;53133;52.862;6.602;2022-10-31T14:48:57;15.40;99.90
66328;DHT22;53133;52.862;6.602;2022-10-31T14:51:39;15.40;99.90
66328;DHT22;53133;52.862;6.602;2022-10-31T14:54:07;15.30;99.90
66328;DHT22;53133;52.862;6.602;2022-10-31T14:56:43;15.30;99.90
66328;DHT22;53133;52.862;6.602;2022-10-31T14:59:15;15.30;99.90
66328;DHT22;53133;52.862;6.602;2022-10-31T15:01:52;15.30;99.90
66328;DHT22;53133;52.862;6.602;2022-10-31T15:04:27;15.30;99.90
66328;DHT22;53133;52.862;6.602;2022-10-31T15:09:30;15.20;99.90
66328;DHT22;53133;52.862;6.602;2022-10-31T15:14:42;15.20;99.90
66328;DHT22;53133;52.862;6.602;2022-10-31T15:17:10;15.20;99.90
66328;DHT22;53133;52.862;6.602;2022-10-31T15:19:36;15.20;99.90
66328;DHT22;53133;52.862;6.602;2022-10-31T15:22:03;15.20;99.90
66328;DHT22;53133;52.862;6.602;2022-10-31T15:24:35;15.20;99.90
66328;DHT22;53133;52.862;6.602;2022-10-31T15:27:01;15.10;99.90
66328;DHT22;53133;52.862;6.602;2022-10-31T15:29:28;15.10;99.90
66328;DHT22;53133;52.862;6.602;2022-10-31T15:31:56;15.10;99.90
66328;DHT22;53133;52.862;6.602;2022-10-31T15:34:41;15.00;99.90
66328;DHT22;53133;52.862;6.602;2022-10-31T15:37:11;15.00;99.90
66328;DHT22;53133;52.862;6.602;2022-10-31T15:39:37;15.00;99.90
66328;DHT22;53133;52.862;6.602;2022-10-31T15:42:03;14.90;99.90
66328;DHT22;53133;52.862;6.602;2022-10-31T15:44:31;14.90;99.90
66328;DHT22;53133;52.862;6.602;2022-10-31T15:47:04;14.80;99.90
66328;DHT22;53133;52.862;6.602;2022-10-31T15:49:35;14.80;99.90
66328;DHT22;53133;52.862;6.602;2022-10-31T15:54:56;14.70;99.90
66328;DHT22;53133;52.862;6.602;2022-10-31T15:57:23;14.70;99.90
66328;DHT22;53133;52.862;6.602;2022-10-31T15:59:52;14.70;99.90
66328;DHT22;53133;52.862;6.602;2022-10-31T16:02:21;14.70;99.90
66328;DHT22;53133;52.862;6.602;2022-10-31T16:04:57;14.60;99.90
66328;DHT22;53133;52.862;6.602;2022-10-31T16:07:23;14.60;99.90
66328;DHT22;53133;52.862;6.602;2022-10-31T16:09:57;14.50;99.90
66328;DHT22;53133;52.862;6.602;2022-10-31T16:12:25;14.50;99.90
66328;DHT22;53133;52.862;6.602;2022-10-31T16:14:55;14.50;99.90
66328;DHT22;53133;52.862;6.602;2022-10-31T16:17:26;14.40;99.90
66328;DHT22;53133;52.862;6.602;2022-10-31T16:20:00;14.40;99.90
66328;DHT22;53133;52.862;6.602;2022-10-31T16:22:33;14.40;99.90
66328;DHT22;53133;52.862;6.602;2022-10-31T16:25:12;14.40;99.90
66328;DHT22;53133;52.862;6.602;2022-10-31T16:27:39;14.30;99.90
66328;DHT22;53133;52.862;6.602;2022-10-31T16:30:46;14.30;99.90
66328;DHT22;53133;52.862;6.602;2022-10-31T16:33:40;14.30;99.90
66328;DHT22;53133;52.862;6.602;2022-10-31T16:38:59;14.30;99.90
66328;DHT22;53133;52.862;6.602;2022-10-31T16:41:25;14.30;99.90
66328;DHT22;53133;52.862;6.602;2022-10-31T16:43:52;14.30;99.90
66328;DHT22;53133;52.862;6.602;2022-10-31T16:46:22;14.30;99.90
66328;DHT22;53133;52.862;6.602;2022-10-31T16:48:49;14.30;99.90
66328;DHT22;53133;52.862;6.602;2022-10-31T16:51:15;14.30;99.90
66328;DHT22;53133;52.862;6.602;2022-10-31T16:53:40;14.30;99.90
66328;DHT22;53133;52.862;6.602;2022-10-31T16:56:16;14.30;99.90
66328;DHT22;53133;52.862;6.602;2022-10-31T16:58:42;14.40;99.90
66328;DHT22;53133;52.862;6.602;2022-10-31T17:01:09;14.30;99.90
66328;DHT22;53133;52.862;6.602;2022-10-31T17:03:36;14.30;99.90
66328;DHT22;53133;52.862;6.602;2022-10-31T17:06:02;14.30;99.90
66328;DHT22;53133;52.862;6.602;2022-10-31T17:08:28;14.40;99.90
66328;DHT22;53133;52.862;6.602;2022-10-31T17:10:56;14.30;99.90
66328;DHT22;53133;52.862;6.602;2022-10-31T17:13:25;14.40;99.90
66328;DHT22;53133;52.862;6.602;2022-10-31T17:15:55;14.40;99.90
66328;DHT22;53133;52.862;6.602;2022-10-31T17:18:20;14.40;99.90
66328;DHT22;53133;52.862;6.602;2022-10-31T17:20:47;14.40;99.90
66328;DHT22;53133;52.862;6.602;2022-10-31T17:23:14;14.40;99.90
66328;DHT22;53133;52.862;6.602;2022-10-31T17:25:41;14.40;99.90
66328;DHT22;53133;52.862;6.602;2022-10-31T17:28:11;14.40;99.90
66328;DHT22;53133;52.862;6.602;2022-10-31T17:30:38;14.40;99.90
66328;DHT22;53133;52.862;6.602;2022-10-31T17:33:03;14.40;99.90
66328;DHT22;53133;52.862;6.602;2022-10-31T17:35:29;14.40;99.90
66328;DHT22;53133;52.862;6.602;2022-10-31T17:37:55;14.40;99.90
66328;DHT22;53133;52.862;6.602;2022-10-31T17:40:21;14.40;99.90
66328;DHT22;53133;52.862;6.602;2022-10-31T17:42:55;14.40;99.90
66328;DHT22;53133;52.862;6.602;2022-10-31T17:45:23;14.40;99.90
66328;DHT22;53133;52.862;6.602;2022-10-31T17:47:49;14.40;99.90